createdAt,value
2019-02-27T00:00:31.207Z,29.70
2019-02-27T00:03:19.515Z,29.13
2019-02-27T00:06:04.975Z,32.27
2019-02-27T00:08:50.092Z,31.93
2019-02-27T00:11:35.449Z,36.67
2019-02-27T00:14:20.553Z,39.27
2019-02-27T00:17:05.457Z,32.70
2019-02-27T00:19:50.876Z,32.70
2019-02-27T00:22:36.150Z,33.47
2019-02-27T00:25:21.321Z,33.20
2019-02-27T00:28:06.187Z,29.40
2019-02-27T00:30:51.173Z,32.80
2019-02-27T00:33:36.365Z,35.47
2019-02-27T00:36:21.563Z,29.43
2019-02-27T00:39:07.351Z,33.83
2019-02-27T00:41:52.490Z,37.10
2019-02-27T00:44:37.439Z,40.37
2019-02-27T00:47:22.224Z,40.33
2019-02-27T00:50:08.384Z,38.23
2019-02-27T00:52:54.699Z,32.60
2019-02-27T00:55:39.590Z,31.47
2019-02-27T00:58:26.823Z,28.37
2019-02-27T01:01:12.780Z,27.93
2019-02-27T01:04:00.974Z,30.53
2019-02-27T01:06:47.608Z,27.27
2019-02-27T01:09:32.072Z,31.93
2019-02-27T01:12:17.481Z,30.77
2019-02-27T01:15:07.931Z,33.27
2019-02-27T01:17:55.066Z,34.60
2019-02-27T01:20:45.510Z,29.70
2019-02-27T01:23:27.353Z,25.87
2019-02-27T01:26:12.050Z,30.17
2019-02-27T01:28:56.802Z,30.70
2019-02-27T01:31:41.890Z,31.33
2019-02-27T01:34:27.019Z,29.53
2019-02-27T01:37:13.260Z,24.87
2019-02-27T01:39:58.166Z,24.83
2019-02-27T01:42:43.062Z,26.00
2019-02-27T01:45:29.241Z,25.63
2019-02-27T01:48:14.130Z,25.97
2019-02-27T01:50:59.534Z,26.20
2019-02-27T01:53:44.591Z,24.97
2019-02-27T01:56:29.713Z,25.83
2019-02-27T01:59:16.909Z,23.93
2019-02-27T02:02:03.501Z,21.10
2019-02-27T02:04:53.044Z,26.90
2019-02-27T02:07:35.352Z,26.67
2019-02-27T02:10:20.640Z,20.67
2019-02-27T02:13:15.287Z,23.00
2019-02-27T02:16:19.814Z,26.17
2019-02-27T02:19:24.063Z,22.83
2019-02-27T02:22:15.539Z,22.60
2019-02-27T02:25:31.309Z,26.77
2019-02-27T02:28:26.086Z,27.63
2019-02-27T02:31:30.112Z,22.60
2019-02-27T02:34:24.654Z,23.50
2019-02-27T02:37:16.465Z,21.43
2019-02-27T02:40:31.234Z,29.30
2019-02-27T02:43:40.150Z,23.90
2019-02-27T02:46:30.317Z,22.47
2019-02-27T02:49:27.892Z,26.50
2019-02-27T02:52:25.809Z,26.00
2019-02-27T02:55:14.599Z,25.10
2019-02-27T02:58:07.903Z,23.20
2019-02-27T03:01:02.905Z,21.80
2019-02-27T03:04:00.808Z,22.20
2019-02-27T03:06:52.655Z,22.60
2019-02-27T03:09:59.664Z,23.83
2019-02-27T03:13:07.091Z,21.70
2019-02-27T03:16:07.145Z,21.07
2019-02-27T03:18:55.589Z,21.37
2019-02-27T03:21:52.895Z,22.33
2019-02-27T03:24:56.905Z,21.03
2019-02-27T03:28:19.616Z,20.53
2019-02-27T03:31:18.058Z,21.13
2019-02-27T03:34:13.645Z,23.07
2019-02-27T03:37:05.642Z,20.53
2019-02-27T03:40:10.677Z,19.97
2019-02-27T03:43:10.442Z,20.47
2019-02-27T03:46:06.215Z,21.80
2019-02-27T03:49:03.713Z,20.33
2019-02-27T03:52:00.636Z,22.60
2019-02-27T03:55:24.651Z,22.57
2019-02-27T03:58:30.574Z,22.20
2019-02-27T04:01:30.068Z,20.77
2019-02-27T04:04:30.936Z,22.97
2019-02-27T04:07:31.469Z,23.63
2019-02-27T04:10:12.702Z,20.07
2019-02-27T04:12:57.990Z,23.03
2019-02-27T04:15:43.168Z,21.67
2019-02-27T04:18:28.620Z,19.73
2019-02-27T04:21:13.964Z,24.30
2019-02-27T04:23:58.894Z,21.07
2019-02-27T04:26:43.759Z,21.57
2019-02-27T04:29:28.714Z,22.30
2019-02-27T04:32:13.769Z,19.97
2019-02-27T04:34:58.658Z,20.63
2019-02-27T04:37:44.039Z,19.87
2019-02-27T04:40:29.037Z,20.50
2019-02-27T04:43:14.038Z,21.67
2019-02-27T04:45:59.367Z,18.47
2019-02-27T04:48:44.209Z,19.20
2019-02-27T04:51:29.095Z,21.03
2019-02-27T04:54:13.839Z,18.50
2019-02-27T04:56:58.759Z,16.70
2019-02-27T04:59:43.479Z,17.17
2019-02-27T05:02:28.174Z,18.60
2019-02-27T05:05:13.027Z,16.73
2019-02-27T05:07:57.783Z,19.20
2019-02-27T05:10:42.725Z,16.33
2019-02-27T05:13:27.443Z,17.80
2019-02-27T05:16:14.119Z,17.40
2019-02-27T05:19:03.537Z,16.93
2019-02-27T05:21:46.137Z,18.10
2019-02-27T05:24:31.437Z,17.47
2019-02-27T05:27:16.301Z,17.03
2019-02-27T05:30:01.392Z,16.87
2019-02-27T05:32:46.477Z,17.47
2019-02-27T05:35:31.323Z,20.33
2019-02-27T05:38:16.140Z,19.00
2019-02-27T05:41:00.938Z,18.20
2019-02-27T05:43:48.484Z,17.63
2019-02-27T05:46:35.742Z,18.43
2019-02-27T05:49:20.330Z,17.30
2019-02-27T05:52:05.326Z,20.27
2019-02-27T05:54:50.023Z,20.40
2019-02-27T05:57:34.948Z,17.60
2019-02-27T06:00:20.489Z,14.67
2019-02-27T06:03:07.313Z,15.87
2019-02-27T06:05:53.471Z,20.00
2019-02-27T06:08:38.333Z,16.53
2019-02-27T06:11:23.540Z,18.37
2019-02-27T06:14:08.236Z,18.07
2019-02-27T06:16:53.400Z,21.13
2019-02-27T06:19:38.505Z,19.30
2019-02-27T06:22:23.276Z,17.00
2019-02-27T06:25:13.504Z,19.67
2019-02-27T06:27:58.394Z,19.43
2019-02-27T06:30:43.719Z,18.77
2019-02-27T06:33:28.763Z,21.67
2019-02-27T06:36:13.642Z,22.77
2019-02-27T06:39:00.307Z,17.17
2019-02-27T06:41:47.376Z,22.03
2019-02-27T06:44:32.427Z,19.30
2019-02-27T06:47:17.308Z,19.27
2019-02-27T06:50:04.225Z,19.57
2019-02-27T06:52:49.165Z,18.80
2019-02-27T06:55:33.979Z,20.13
2019-02-27T06:58:19.113Z,20.00
2019-02-27T07:01:03.912Z,18.53
2019-02-27T07:03:48.882Z,25.30
2019-02-27T07:06:33.786Z,18.80
2019-02-27T07:09:19.873Z,16.83
2019-02-27T07:12:07.111Z,21.23
2019-02-27T07:14:51.758Z,17.70
2019-02-27T07:17:36.705Z,19.40
2019-02-27T07:20:24.426Z,23.00
2019-02-27T07:23:08.400Z,24.27
2019-02-27T07:25:53.548Z,23.57
2019-02-27T07:28:43.217Z,21.97
2019-02-27T07:31:25.620Z,17.70
2019-02-27T07:34:14.204Z,25.03
2019-02-27T07:36:57.489Z,24.57
2019-02-27T07:39:43.107Z,20.63
2019-02-27T07:42:31.988Z,19.90
2019-02-27T07:45:22.837Z,22.87
2019-02-27T07:48:08.017Z,18.60
2019-02-27T07:50:53.027Z,18.07
2019-02-27T07:53:39.003Z,21.40
2019-02-27T07:56:25.359Z,16.43
2019-02-27T07:59:10.587Z,14.97
2019-02-27T08:01:55.704Z,18.23
2019-02-27T08:04:41.169Z,18.17
2019-02-27T08:07:26.167Z,16.50
2019-02-27T08:10:19.747Z,18.17
2019-02-27T08:13:04.658Z,21.20
2019-02-27T08:15:49.626Z,24.03
2019-02-27T08:18:37.727Z,19.43
2019-02-27T08:21:22.017Z,18.73
2019-02-27T08:24:07.680Z,18.57
2019-02-27T08:26:52.728Z,23.50
2019-02-27T08:29:37.890Z,19.53
2019-02-27T08:32:23.366Z,18.97
2019-02-27T08:35:09.165Z,19.00
2019-02-27T08:38:02.251Z,20.60
2019-02-27T08:40:42.557Z,16.80
2019-02-27T08:43:30.543Z,19.43
2019-02-27T08:46:15.844Z,17.17
2019-02-27T08:49:00.796Z,16.90
2019-02-27T08:51:46.198Z,16.50
2019-02-27T08:54:33.037Z,19.10
2019-02-27T08:57:18.483Z,20.60
2019-02-27T09:00:07.092Z,17.80
2019-02-27T09:02:52.466Z,19.40
2019-02-27T09:05:37.720Z,21.80
2019-02-27T09:08:22.999Z,16.30
2019-02-27T09:11:08.416Z,16.30
2019-02-27T09:13:53.662Z,21.13
2019-02-27T09:16:39.316Z,19.00
2019-02-27T09:19:24.547Z,17.67
2019-02-27T09:22:09.343Z,18.00
2019-02-27T09:24:54.313Z,14.13
2019-02-27T09:27:39.099Z,14.43
2019-02-27T09:30:28.763Z,13.10
2019-02-27T09:33:11.798Z,14.07
2019-02-27T09:35:56.456Z,16.77
2019-02-27T09:38:41.352Z,20.93
2019-02-27T09:41:26.734Z,12.27
2019-02-27T09:44:11.782Z,12.67
2019-02-27T09:46:57.024Z,12.27
2019-02-27T09:49:41.931Z,15.93
2019-02-27T09:52:27.819Z,13.50
2019-02-27T09:55:14.086Z,13.67
2019-02-27T09:57:59.348Z,9.80
2019-02-27T10:01:02.911Z,15.73
2019-02-27T10:03:46.775Z,10.03
2019-02-27T10:06:31.847Z,9.80
2019-02-27T10:09:17.311Z,10.13
2019-02-27T10:12:02.419Z,8.47
2019-02-27T10:14:47.963Z,6.25
2019-02-27T10:17:34.322Z,9.37
2019-02-27T10:20:19.381Z,8.25
2019-02-27T10:23:05.521Z,11.35
2019-02-27T10:25:50.551Z,5.70
2019-02-27T10:28:39.121Z,6.33
2019-02-27T10:31:22.628Z,7.87
2019-02-27T10:34:08.424Z,8.40
2019-02-27T10:36:53.393Z,4.53
2019-02-27T10:39:38.760Z,5.53
2019-02-27T10:42:23.644Z,7.90
2019-02-27T10:45:10.717Z,3.67
2019-02-27T10:47:56.043Z,5.53
2019-02-27T10:50:41.108Z,5.87
2019-02-27T10:53:27.473Z,5.55
2019-02-27T10:56:12.708Z,3.77
2019-02-27T10:58:57.641Z,5.60
2019-02-27T11:01:42.833Z,4.40
2019-02-27T11:04:27.800Z,5.47
2019-02-27T11:07:15.791Z,5.85
2019-02-27T11:10:00.551Z,5.85
2019-02-27T11:12:46.151Z,5.28
2019-02-27T11:15:30.973Z,5.30
2019-02-27T11:18:15.907Z,5.60
2019-02-27T11:21:00.856Z,4.65
2019-02-27T11:23:46.042Z,3.62
2019-02-27T11:26:33.229Z,3.33
2019-02-27T11:29:17.681Z,3.25
2019-02-27T11:32:03.187Z,4.12
2019-02-27T11:34:48.448Z,2.22
2019-02-27T11:37:34.410Z,3.05
2019-02-27T11:40:23.608Z,5.80
2019-02-27T11:43:08.717Z,2.52
2019-02-27T11:45:57.515Z,2.17
2019-02-27T11:48:40.675Z,4.05
2019-02-27T11:51:25.487Z,2.70
2019-02-27T11:54:10.263Z,4.00
2019-02-27T11:56:56.924Z,2.62
2019-02-27T11:59:46.552Z,3.50
2019-02-27T12:02:31.203Z,3.40
2019-02-27T12:05:15.939Z,4.62
2019-02-27T12:08:01.481Z,4.62
2019-02-27T12:10:46.558Z,5.08
2019-02-27T12:13:32.357Z,3.92
2019-02-27T12:16:18.611Z,5.22
2019-02-27T12:19:06.423Z,4.70
2019-02-27T12:21:51.343Z,4.00
2019-02-27T12:24:36.577Z,5.22
2019-02-27T12:27:47.373Z,6.97
2019-02-27T12:30:11.392Z,5.35
2019-02-27T12:32:57.180Z,4.55
2019-02-27T12:35:44.920Z,4.42
2019-02-27T12:38:29.841Z,5.53
2019-02-27T12:41:14.961Z,5.87
2019-02-27T12:44:02.578Z,10.43
2019-02-27T12:46:47.214Z,5.30
2019-02-27T12:49:32.006Z,5.78
2019-02-27T12:52:17.359Z,4.97
2019-02-27T12:55:04.520Z,4.90
2019-02-27T12:57:52.485Z,6.40
2019-02-27T13:00:39.982Z,6.08
2019-02-27T13:03:24.616Z,6.83
2019-02-27T13:06:09.714Z,6.45
2019-02-27T13:08:56.237Z,5.40
2019-02-27T13:11:41.644Z,7.20
2019-02-27T13:14:28.282Z,5.28
2019-02-27T13:17:13.324Z,7.67
2019-02-27T13:19:58.611Z,7.70
2019-02-27T13:22:43.282Z,4.47
2019-02-27T13:25:30.170Z,5.70
2019-02-27T13:28:15.708Z,4.65
2019-02-27T13:31:01.065Z,6.22
2019-02-27T13:33:47.453Z,5.00
2019-02-27T13:36:34.175Z,9.95
2019-02-27T13:39:19.068Z,6.90
2019-02-27T13:42:04.190Z,6.33
2019-02-27T13:44:49.256Z,5.85
2019-02-27T13:47:34.091Z,5.55
2019-02-27T13:50:22.157Z,6.67
2019-02-27T13:53:06.881Z,5.08
2019-02-27T13:55:52.994Z,6.12
2019-02-27T13:58:37.802Z,5.92
2019-02-27T14:01:25.084Z,8.03
2019-02-27T14:04:09.244Z,5.62
2019-02-27T14:06:54.302Z,6.83
2019-02-27T14:09:41.524Z,4.90
2019-02-27T14:12:27.046Z,5.08
2019-02-27T14:15:14.677Z,6.20
2019-02-27T14:18:00.123Z,5.08
2019-02-27T14:20:45.373Z,6.70
2019-02-27T14:23:30.542Z,5.15
2019-02-27T14:26:15.601Z,4.90
2019-02-27T14:29:00.481Z,7.67
2019-02-27T14:31:45.307Z,4.37
2019-02-27T14:34:30.666Z,4.50
2019-02-27T14:37:16.525Z,5.78
2019-02-27T14:40:05.426Z,5.10
2019-02-27T14:42:53.953Z,6.12
2019-02-27T14:45:40.658Z,5.33
2019-02-27T14:48:26.002Z,4.30
2019-02-27T14:51:11.243Z,4.95
2019-02-27T14:53:56.552Z,6.50
2019-02-27T14:56:41.899Z,4.90
2019-02-27T14:59:30.605Z,4.67
2019-02-27T15:02:15.948Z,7.53
2019-02-27T15:05:06.215Z,5.85
2019-02-27T15:07:49.836Z,4.85
2019-02-27T15:10:40.066Z,5.58
2019-02-27T15:13:22.206Z,6.10
2019-02-27T15:16:08.192Z,7.58
2019-02-27T15:18:55.831Z,4.55
2019-02-27T15:21:43.911Z,4.37
2019-02-27T15:24:28.342Z,5.55
2019-02-27T15:27:13.011Z,4.30
2019-02-27T15:29:57.982Z,6.30
2019-02-27T15:32:43.382Z,5.67
2019-02-27T15:35:29.008Z,9.00
2019-02-27T15:38:14.245Z,6.85
2019-02-27T15:41:02.339Z,4.20
2019-02-27T15:43:54.683Z,5.20
2019-02-27T15:46:33.247Z,5.30
2019-02-27T15:49:18.826Z,5.05
2019-02-27T15:52:06.985Z,4.45
2019-02-27T15:54:50.651Z,5.08
2019-02-27T15:57:35.538Z,4.78
2019-02-27T16:00:24.777Z,5.47
2019-02-27T16:03:11.738Z,6.28
2019-02-27T16:05:56.790Z,5.33
2019-02-27T16:08:42.107Z,7.50
2019-02-27T16:11:26.774Z,6.40
2019-02-27T16:14:11.707Z,5.72
2019-02-27T16:16:57.570Z,4.92
2019-02-27T16:19:44.702Z,4.53
2019-02-27T16:22:31.703Z,5.53
2019-02-27T16:25:24.251Z,5.62
2019-02-27T16:28:12.172Z,6.83
2019-02-27T16:30:56.222Z,6.58
2019-02-27T16:33:41.647Z,7.53
2019-02-27T16:36:35.730Z,5.25
2019-02-27T16:39:13.548Z,7.35
2019-02-27T16:42:00.816Z,5.87
2019-02-27T16:44:45.446Z,5.08
2019-02-27T16:47:32.826Z,11.08
2019-02-27T16:50:23.894Z,7.72
2019-02-27T16:53:07.456Z,5.20
2019-02-27T16:55:52.735Z,5.75
2019-02-27T16:58:37.651Z,6.17
2019-02-27T17:01:26.298Z,6.25
2019-02-27T17:04:11.449Z,5.97
2019-02-27T17:06:57.787Z,6.25
2019-02-27T17:09:43.864Z,8.18
2019-02-27T17:12:30.011Z,8.23
2019-02-27T17:15:17.687Z,7.78
2019-02-27T17:18:02.832Z,7.37
2019-02-27T17:20:47.809Z,6.37
2019-02-27T17:23:33.068Z,7.33
2019-02-27T17:26:18.197Z,6.47
2019-02-27T17:29:03.497Z,5.97
2019-02-27T17:31:55.428Z,5.72
2019-02-27T17:34:37.182Z,6.53
2019-02-27T17:37:22.678Z,7.33
2019-02-27T17:40:12.553Z,6.37
2019-02-27T17:42:57.468Z,5.73
2019-02-27T17:45:44.339Z,5.70
2019-02-27T17:48:29.413Z,7.50
2019-02-27T17:51:17.945Z,6.87
2019-02-27T17:54:03.165Z,5.83
2019-02-27T17:56:49.965Z,9.53
2019-02-27T17:59:35.947Z,7.80
2019-02-27T18:02:22.370Z,9.10
2019-02-27T18:05:08.641Z,7.00
2019-02-27T18:07:53.587Z,11.73
2019-02-27T18:10:38.519Z,7.77
2019-02-27T18:13:25.250Z,7.57
2019-02-27T18:16:29.935Z,10.17
2019-02-27T18:19:35.993Z,9.67
2019-02-27T18:22:35.206Z,7.90
2019-02-27T18:25:34.643Z,9.27
2019-02-27T18:28:34.624Z,9.87
2019-02-27T18:31:33.798Z,11.77
2019-02-27T18:34:33.184Z,10.13
2019-02-27T18:37:32.822Z,10.23
2019-02-27T18:40:35.120Z,11.70
2019-02-27T18:43:34.246Z,9.93
2019-02-27T18:46:33.411Z,11.10
2019-02-27T18:49:33.540Z,12.70
2019-02-27T18:52:33.670Z,13.70
2019-02-27T18:55:33.671Z,21.63
2019-02-27T18:58:33.565Z,29.90
2019-02-27T19:01:33.106Z,31.97
2019-02-27T19:04:35.216Z,30.13
2019-02-27T19:07:34.962Z,28.20
2019-02-27T19:10:34.627Z,28.40
2019-02-27T19:13:34.428Z,26.37
2019-02-27T19:16:33.958Z,25.90
2019-02-27T19:19:33.972Z,25.23
2019-02-27T19:22:33.880Z,19.30
2019-02-27T19:25:34.743Z,15.43
2019-02-27T19:28:34.938Z,19.87
2019-02-27T19:31:34.815Z,17.77
2019-02-27T19:34:35.379Z,17.23
2019-02-27T19:37:36.329Z,17.50
2019-02-27T19:40:36.875Z,18.77
2019-02-27T19:43:36.875Z,14.97
2019-02-27T19:46:37.067Z,18.00
2019-02-27T19:49:37.355Z,17.77
2019-02-27T19:52:37.325Z,19.10
2019-02-27T19:55:36.849Z,16.50
2019-02-27T19:58:36.655Z,12.53
2019-02-27T20:01:36.805Z,15.67
2019-02-27T20:04:36.926Z,16.57
2019-02-27T20:07:36.643Z,14.93
2019-02-27T20:10:36.816Z,19.07
2019-02-27T20:13:36.910Z,15.20
2019-02-27T20:16:37.027Z,13.40
2019-02-27T20:19:36.941Z,18.00
2019-02-27T20:22:36.855Z,13.73
2019-02-27T20:25:36.950Z,16.00
2019-02-27T20:28:37.181Z,14.17
2019-02-27T20:31:37.390Z,17.33
2019-02-27T20:34:37.390Z,17.93
2019-02-27T20:37:40.385Z,15.93
2019-02-27T20:40:38.991Z,17.50
2019-02-27T20:43:38.528Z,16.47
2019-02-27T20:46:37.810Z,19.33
2019-02-27T20:49:37.414Z,15.93
2019-02-27T20:52:37.917Z,18.67
2019-02-27T20:55:37.978Z,21.13
2019-02-27T20:58:38.262Z,22.20
2019-02-27T21:01:38.179Z,21.97
2019-02-27T21:04:39.172Z,17.80
2019-02-27T21:07:39.096Z,18.47
2019-02-27T21:10:39.251Z,17.13
2019-02-27T21:13:38.619Z,18.53
2019-02-27T21:16:40.147Z,22.07
2019-02-27T21:19:40.266Z,19.10
2019-02-27T21:22:39.582Z,19.03
2019-02-27T21:25:39.241Z,16.67
2019-02-27T21:28:38.947Z,17.23
2019-02-27T21:31:39.205Z,17.87
2019-02-27T21:34:39.455Z,19.80
2019-02-27T21:37:44.496Z,20.10
2019-02-27T21:40:41.239Z,18.30
2019-02-27T21:43:40.427Z,17.93
2019-02-27T21:46:40.334Z,18.83
2019-02-27T21:49:40.189Z,17.67
2019-02-27T21:52:40.208Z,21.50
2019-02-27T21:55:39.657Z,16.93
2019-02-27T21:58:39.982Z,20.33
2019-02-27T22:01:40.825Z,19.77
2019-02-27T22:04:41.206Z,17.27
2019-02-27T22:07:42.292Z,15.83
2019-02-27T22:10:41.794Z,16.47
2019-02-27T22:13:42.222Z,17.10
2019-02-27T22:16:43.678Z,17.87
2019-02-27T22:19:42.956Z,18.40
2019-02-27T22:22:42.490Z,18.63
2019-02-27T22:25:42.644Z,28.10
2019-02-27T22:28:42.969Z,28.47
2019-02-27T22:31:43.137Z,35.03
2019-02-27T22:34:43.476Z,31.07
2019-02-27T22:37:43.639Z,23.77
2019-02-27T22:40:43.847Z,27.23
2019-02-27T22:43:44.141Z,26.43
2019-02-27T22:46:44.301Z,24.70
2019-02-27T22:49:44.614Z,28.63
2019-02-27T22:52:44.860Z,33.80
2019-02-27T22:55:45.255Z,32.77
2019-02-27T22:58:45.461Z,30.70
2019-02-27T23:01:49.417Z,37.00
2019-02-27T23:04:46.969Z,25.90
2019-02-27T23:07:48.159Z,26.60
2019-02-27T23:10:48.215Z,27.23
2019-02-27T23:13:48.256Z,22.20
2019-02-27T23:16:48.553Z,20.93
2019-02-27T23:19:47.774Z,21.60
2019-02-27T23:22:47.336Z,23.70
2019-02-27T23:25:47.416Z,24.63
2019-02-27T23:28:47.425Z,28.03
2019-02-27T23:31:47.679Z,19.03
2019-02-27T23:34:47.819Z,20.53
2019-02-27T23:37:48.211Z,23.80
2019-02-27T23:40:49.034Z,17.63
2019-02-27T23:43:49.784Z,20.73
2019-02-27T23:46:51.736Z,23.13
2019-02-27T23:49:50.326Z,17.87
2019-02-27T23:52:49.752Z,16.30
2019-02-27T23:55:49.559Z,18.20
2019-02-27T23:58:49.820Z,19.43
